Time;durP1;ratioP1;P1;durP2;ratioP2;P2;SDS_P1;SDS_P2;PMS_P1;PMS_P2;Temp;Humidity;BMP_temperature;BMP_pressure;BME280_temperature;BME280_humidity;BME280_pressure;Samples;Min_cycle;Max_cycle;Signal;HPM_P1;HPM_P2
2022/04/13 00:00:15;;;;;;;6.72;3.80;;;;;;;12.07;66.45;96251.44;2074888;28;20202;-76
2022/04/13 00:01:16;;;;;;;8.32;3.75;;;;;;;11.85;67.32;96238.31;2074192;28;20198;-76
2022/04/13 00:02:18;;;;;;;6.47;3.80;;;;;;;11.87;67.49;96241.63;2077858;28;20210;-76
2022/04/13 00:03:19;;;;;;;9.45;3.90;;;;;;;11.64;68.34;96244.31;2076246;28;20209;-76
2022/04/13 00:04:21;;;;;;;5.85;3.65;;;;;;;11.53;68.53;96249.56;2075751;28;20713;-76
2022/04/13 00:05:23;;;;;;;8.95;3.28;;;;;;;11.60;68.27;96239.41;2075578;28;20221;-76
2022/04/13 00:06:25;;;;;;;9.18;3.50;;;;;;;11.67;68.30;96249.28;2076524;28;20636;-76
2022/04/13 00:07:26;;;;;;;6.20;3.90;;;;;;;11.60;68.67;96240.25;2076812;28;20213;-76
2022/04/13 00:08:28;;;;;;;8.98;3.13;;;;;;;11.61;68.60;96241.91;2078654;28;20193;-76
2022/04/13 00:09:29;;;;;;;7.88;3.20;;;;;;;11.67;68.16;96241.44;2078907;28;20208;-76
2022/04/13 00:10:31;;;;;;;5.10;3.03;;;;;;;11.71;68.18;96243.81;2078379;28;20220;-75
2022/04/13 00:11:33;;;;;;;5.00;2.80;;;;;;;11.67;68.07;96238.81;2076221;28;20208;-75
2022/04/13 00:12:34;;;;;;;5.78;3.38;;;;;;;11.77;68.00;96253.81;2078088;28;20251;-75
2022/04/13 00:13:36;;;;;;;8.48;3.30;;;;;;;11.63;68.21;96239.19;2078645;28;20205;-76
2022/04/13 00:14:37;;;;;;;5.63;2.90;;;;;;;11.52;68.25;96247.88;2079593;28;20196;-75
2022/04/13 00:15:40;;;;;;;9.43;3.72;;;;;;;11.50;68.91;96251.56;2076493;28;20217;-75
2022/04/13 00:16:42;;;;;;;5.80;3.17;;;;;;;11.41;68.58;96234.78;2076842;28;20202;-76
2022/04/13 00:17:43;;;;;;;7.07;4.13;;;;;;;11.38;69.04;96240.25;2076312;28;20450;-76
2022/04/13 00:18:45;;;;;;;12.75;4.28;;;;;;;11.40;69.16;96248.84;2076460;28;20202;-76
2022/04/13 00:19:47;;;;;;;8.32;4.20;;;;;;;11.36;69.42;96256.09;2077232;28;20196;-76
2022/04/13 00:20:48;;;;;;;7.07;3.50;;;;;;;11.31;69.61;96239.91;2078526;28;20294;-76
2022/04/13 00:21:50;;;;;;;5.32;3.28;;;;;;;11.38;69.85;96251.56;2077681;28;20224;-76
2022/04/13 00:22:51;;;;;;;6.10;3.30;;;;;;;11.43;69.30;96253.84;2076642;28;20200;-76
2022/04/13 00:23:53;;;;;;;7.85;3.30;;;;;;;11.15;69.86;96242.03;2076754;28;20198;-75
2022/04/13 00:24:55;;;;;;;7.47;4.10;;;;;;;11.05;70.55;96245.38;2077513;28;20901;-76
2022/04/13 00:25:59;;;;;;;4.80;3.40;;;;;;;11.15;70.59;96242.84;2076091;28;20212;-75
2022/04/13 00:27:01;;;;;;;5.82;3.40;;;;;;;11.12;70.75;96245.72;2075947;28;20201;-76
2022/04/13 00:28:02;;;;;;;4.03;2.80;;;;;;;11.16;70.76;96247.16;2076231;28;20729;-76
2022/04/13 00:29:04;;;;;;;8.80;3.90;;;;;;;11.21;70.68;96255.50;2069666;28;20212;-75
2022/04/13 00:30:06;;;;;;;11.75;3.50;;;;;;;11.21;70.30;96239.78;2069246;28;20204;-76
2022/04/13 00:31:08;;;;;;;8.73;3.35;;;;;;;11.27;70.07;96247.16;2067362;28;20218;-76
2022/04/13 00:32:09;;;;;;;11.52;3.40;;;;;;;11.20;70.23;96238.09;2078764;28;20227;-76
2022/04/13 00:33:11;;;;;;;10.90;3.42;;;;;;;11.30;70.26;96251.34;2087952;28;21109;-75
2022/04/13 00:34:12;;;;;;;9.02;3.40;;;;;;;11.24;69.84;96236.09;2076205;28;20216;-76
2022/04/13 00:35:14;;;;;;;7.57;3.00;;;;;;;11.32;70.18;96251.22;2075201;28;20199;-76
2022/04/13 00:36:15;;;;;;;7.28;3.05;;;;;;;11.31;70.23;96262.63;2075031;28;20213;-75
2022/04/13 00:37:17;;;;;;;5.97;3.58;;;;;;;11.28;70.18;96251.44;2076812;28;20197;-75
2022/04/13 00:38:19;;;;;;;8.23;3.70;;;;;;;11.28;70.37;96255.84;2077422;28;20200;-76
2022/04/13 00:39:21;;;;;;;9.38;4.07;;;;;;;11.30;70.15;96253.94;2078092;28;20651;-75
2022/04/13 00:40:22;;;;;;;8.05;4.30;;;;;;;11.17;70.76;96240.13;2076064;28;20224;-75
2022/04/13 00:41:24;;;;;;;12.68;4.40;;;;;;;11.27;70.66;96255.03;2076286;28;20200;-76
2022/04/13 00:42:26;;;;;;;14.88;3.78;;;;;;;11.19;70.57;96239.06;2076566;28;20208;-75
2022/04/13 00:43:28;;;;;;;10.52;3.90;;;;;;;11.26;70.22;96242.88;2077171;28;20197;-75
2022/04/13 00:44:30;;;;;;;7.13;2.78;;;;;;;11.30;70.50;96256.56;2076193;28;20204;-76
2022/04/13 00:45:32;;;;;;;9.13;3.95;;;;;;;11.16;70.48;96238.47;2078279;28;20698;-76
2022/04/13 00:46:34;;;;;;;9.77;3.72;;;;;;;11.31;70.60;96254.78;2079076;28;20204;-76
2022/04/13 00:47:39;;;;;;;8.98;4.30;;;;;;;11.20;70.56;96247.75;2076438;28;20533;-76
2022/04/13 00:48:45;;;;;;;11.82;3.10;;;;;;;11.24;70.80;96257.06;2076535;28;20197;-76
2022/04/13 00:49:47;;;;;;;6.95;3.88;;;;;;;11.16;70.68;96246.31;2068147;28;20749;-75
2022/04/13 00:50:48;;;;;;;9.05;4.07;;;;;;;11.18;70.86;96263.59;2078949;28;20231;-76
2022/04/13 00:51:50;;;;;;;11.48;3.88;;;;;;;11.11;71.30;96261.56;2079743;28;20219;-75
2022/04/13 00:52:53;;;;;;;13.40;4.07;;;;;;;11.05;71.11;96247.13;2079859;28;20215;-76
2022/04/13 00:53:58;;;;;;;5.88;3.45;;;;;;;11.12;71.29;96256.19;2076478;28;20591;-75
2022/04/13 00:55:01;;;;;;;6.32;3.47;;;;;;;11.02;71.18;96239.53;2075559;28;20212;-76
2022/04/13 00:56:04;;;;;;;10.38;4.50;;;;;;;10.96;71.39;96232.97;2079149;28;20205;-75
2022/04/13 00:57:11;;;;;;;10.10;4.05;;;;;;;10.95;71.36;96239.13;2071334;28;20623;-75
2022/04/13 00:58:15;;;;;;;9.82;4.05;;;;;;;10.98;71.38;96243.31;2079093;28;20227;-76
2022/04/13 00:59:16;;;;;;;14.02;3.97;;;;;;;10.93;71.56;96240.22;2079328;28;20196;-76
2022/04/13 01:00:19;;;;;;;6.57;3.35;;;;;;;10.96;71.78;96255.72;2077989;28;26021;-75
2022/04/13 01:01:25;;;;;;;5.07;3.50;;;;;;;11.01;71.96;96257.00;2078746;28;20202;-75
2022/04/13 01:02:29;;;;;;;12.35;4.47;;;;;;;11.10;71.40;96257.28;2078202;28;20200;-76
2022/04/13 01:03:34;;;;;;;10.23;3.85;;;;;;;11.02;71.77;96253.44;2075824;28;20262;-75
2022/04/13 01:04:36;;;;;;;8.23;4.38;;;;;;;10.95;72.04;96254.84;2085632;28;20196;-74
2022/04/13 01:05:39;;;;;;;6.70;4.50;;;;;;;10.85;72.09;96252.09;2081713;28;20228;-74
2022/04/13 01:06:42;;;;;;;10.27;4.55;;;;;;;10.93;72.07;96262.00;2085487;28;20295;-74
2022/04/13 01:07:44;;;;;;;14.70;5.07;;;;;;;10.95;72.03;96260.09;2083204;28;20236;-74
2022/04/13 01:08:49;;;;;;;11.13;5.68;;;;;;;10.96;71.54;96260.94;2079577;28;20197;-74
2022/04/13 01:09:52;;;;;;;11.45;4.57;;;;;;;11.01;71.75;96266.66;2079757;28;20193;-74
2022/04/13 01:10:54;;;;;;;11.05;3.55;;;;;;;10.92;71.56;96254.25;2077503;28;20292;-74
2022/04/13 01:11:56;;;;;;;12.20;4.70;;;;;;;10.97;71.80;96262.59;2071440;28;20223;-74
2022/04/13 01:12:57;;;;;;;9.27;4.38;;;;;;;10.93;71.87;96269.84;2079404;28;20549;-73
2022/04/13 01:13:59;;;;;;;8.27;4.35;;;;;;;10.76;72.21;96251.94;2072726;28;20200;-74
2022/04/13 01:15:02;;;;;;;6.93;4.40;;;;;;;10.89;72.18;96264.00;2073737;28;20672;-73
2022/04/13 01:16:05;;;;;;;7.57;3.65;;;;;;;10.94;72.04;96270.69;2084970;28;20201;-74
2022/04/13 01:17:07;;;;;;;5.63;3.40;;;;;;;10.85;71.98;96262.56;2078902;28;20200;-73
2022/04/13 01:18:09;;;;;;;12.30;4.30;;;;;;;10.93;72.05;96272.47;2075075;28;20205;-73
2022/04/13 01:19:16;;;;;;;7.60;2.92;;;;;;;10.96;71.89;96271.44;2082271;28;20568;-74
2022/04/13 01:20:22;;;;;;;9.45;3.58;;;;;;;10.88;72.28;96275.44;2082593;28;20228;-73
2022/04/13 01:21:42;;;;;;;12.30;3.30;;;;;;;10.83;72.57;96280.19;2084260;28;20203;-73
2022/04/13 01:22:47;;;;;;;8.00;3.80;;;;;;;10.84;72.41;96274.00;2083949;28;20240;-73
2022/04/13 01:23:50;;;;;;;6.68;3.30;;;;;;;10.79;72.29;96260.41;2083667;28;20228;-74
2022/04/13 01:24:52;;;;;;;6.20;3.55;;;;;;;10.88;72.18;96270.22;2085209;28;20211;-74
2022/04/13 01:25:55;;;;;;;6.35;3.42;;;;;;;10.80;72.19;96269.97;2084541;28;20212;-73
2022/04/13 01:26:57;;;;;;;11.45;4.13;;;;;;;10.92;72.00;96275.19;2085360;28;20203;-74
2022/04/13 01:27:58;;;;;;;11.95;3.10;;;;;;;10.84;71.94;96284.50;2084147;28;20193;-74
2022/04/13 01:29:00;;;;;;;6.15;3.50;;;;;;;10.82;72.36;96282.91;2085231;28;20507;-74
2022/04/13 01:30:07;;;;;;;6.40;3.45;;;;;;;10.64;72.52;96262.41;2083328;28;20219;-74
2022/04/13 01:31:08;;;;;;;15.15;3.47;;;;;;;10.76;72.33;96271.13;2075165;28;20217;-73
2022/04/13 01:32:13;;;;;;;11.73;3.50;;;;;;;10.74;72.54;96280.91;2077078;28;20240;-74
2022/04/13 01:33:16;;;;;;;4.10;2.47;;;;;;;10.64;72.61;96261.56;2085704;28;20200;-73
2022/04/13 01:34:18;;;;;;;9.82;3.35;;;;;;;10.62;72.76;96271.31;2085531;28;20195;-73
2022/04/13 01:35:23;;;;;;;5.95;3.60;;;;;;;10.71;72.48;96273.25;2078833;28;20703;-74
2022/04/13 01:36:26;;;;;;;11.38;3.85;;;;;;;10.79;72.01;96289.22;2077472;28;20201;-73
2022/04/13 01:37:27;;;;;;;6.32;3.42;;;;;;;10.92;71.54;96280.44;2084327;28;20204;-74
2022/04/13 01:38:30;;;;;;;6.93;3.75;;;;;;;10.88;71.56;96278.06;2085081;28;20204;-73
2022/04/13 01:39:32;;;;;;;6.47;3.20;;;;;;;10.82;71.63;96278.53;2082240;28;20643;-73
2022/04/13 01:40:34;;;;;;;5.53;3.13;;;;;;;10.79;72.06;96278.75;2084455;28;20227;-73
2022/04/13 01:41:36;;;;;;;6.25;3.30;;;;;;;10.75;72.33;96282.56;2082586;28;20209;-73
2022/04/13 01:42:37;;;;;;;7.60;3.78;;;;;;;10.68;72.06;96283.94;2084028;28;20204;-73
2022/04/13 01:43:39;;;;;;;8.32;2.75;;;;;;;10.73;71.93;96281.00;2085895;28;20200;-73
2022/04/13 01:44:41;;;;;;;7.03;3.20;;;;;;;10.74;71.90;96277.41;2086091;28;20196;-73
2022/04/13 01:45:42;;;;;;;4.65;2.78;;;;;;;10.62;71.62;96258.22;2084801;28;20228;-73
2022/04/13 01:46:44;;;;;;;7.93;2.85;;;;;;;10.81;71.34;96276.03;2084394;28;20636;-73
2022/04/13 01:47:50;;;;;;;5.10;2.60;;;;;;;10.76;71.42;96281.63;2082768;28;20444;-73
2022/04/13 01:48:51;;;;;;;7.43;3.20;;;;;;;10.83;71.23;96287.22;2082139;28;20209;-73
2022/04/13 01:49:54;;;;;;;4.93;2.80;;;;;;;10.64;71.47;96266.78;2082002;28;20215;-73
2022/04/13 01:50:58;;;;;;;7.10;2.90;;;;;;;10.64;71.73;96264.19;2083072;28;20212;-73
2022/04/13 01:51:59;;;;;;;13.23;3.00;;;;;;;10.63;71.85;96278.22;2085488;28;20216;-73
2022/04/13 01:53:01;;;;;;;5.70;3.30;;;;;;;10.46;72.19;96264.59;2082795;28;20197;-73
2022/04/13 01:54:03;;;;;;;4.50;2.70;;;;;;;10.52;72.34;96278.19;2083459;28;20193;-73
2022/04/13 01:55:05;;;;;;;8.93;3.15;;;;;;;10.44;72.67;96274.34;2084437;28;20200;-73
2022/04/13 01:56:07;;;;;;;6.90;3.65;;;;;;;10.49;72.41;96274.00;2084799;28;20194;-73
2022/04/13 01:57:08;;;;;;;7.15;3.20;;;;;;;10.59;72.37;96292.50;2085974;28;20241;-73
2022/04/13 01:58:10;;;;;;;6.85;3.22;;;;;;;10.52;72.44;96286.88;2084725;28;20199;-73
2022/04/13 01:59:11;;;;;;;5.43;2.70;;;;;;;10.47;72.45;96287.22;2084326;28;20703;-73
2022/04/13 02:00:16;;;;;;;10.77;3.70;;;;;;;10.52;72.28;96293.88;2084598;28;20219;-73
2022/04/13 02:01:19;;;;;;;8.45;4.05;;;;;;;10.58;72.35;96299.50;2079375;28;20201;-73
2022/04/13 02:02:20;;;;;;;22.40;2.65;;;;;;;10.64;71.92;96306.06;2071396;28;20194;-73
2022/04/13 02:03:24;;;;;;;12.05;3.53;;;;;;;10.60;72.04;96297.59;2079703;28;20666;-73
2022/04/13 02:04:26;;;;;;;5.75;3.10;;;;;;;10.49;72.25;96293.16;2083970;28;20239;-73
2022/04/13 02:05:28;;;;;;;11.07;2.75;;;;;;;10.55;72.23;96296.28;2078137;28;20756;-74
2022/04/13 02:06:29;;;;;;;8.38;3.65;;;;;;;10.51;72.72;96297.47;2078708;28;20204;-74
2022/04/13 02:07:31;;;;;;;6.07;2.72;;;;;;;10.55;71.75;96298.91;2083735;28;20551;-73
2022/04/13 02:08:33;;;;;;;4.35;2.95;;;;;;;10.41;72.34;96285.03;2084691;28;20188;-73
2022/04/13 02:09:35;;;;;;;8.88;3.50;;;;;;;10.55;71.79;96293.69;2086116;28;20203;-73
2022/04/13 02:10:36;;;;;;;5.93;3.33;;;;;;;10.62;71.81;96305.34;2082547;28;20217;-74
2022/04/13 02:11:38;;;;;;;5.13;2.65;;;;;;;10.53;71.88;96300.81;2084558;28;20559;-74
2022/04/13 02:12:41;;;;;;;11.40;3.80;;;;;;;10.40;72.59;96291.22;2085237;28;20208;-73
2022/04/13 02:13:43;;;;;;;5.18;3.20;;;;;;;10.40;72.17;96288.59;2085414;28;20243;-73
2022/04/13 02:14:45;;;;;;;7.00;3.25;;;;;;;10.48;72.38;96306.38;2075901;28;20199;-74
2022/04/13 02:15:48;;;;;;;9.85;4.05;;;;;;;10.42;71.93;96278.84;2076200;28;20688;-74
2022/04/13 02:16:49;;;;;;;10.13;2.95;;;;;;;10.58;71.69;96301.28;2086996;28;20201;-73
2022/04/13 02:17:51;;;;;;;9.43;3.90;;;;;;;10.56;72.04;96292.72;2084761;28;20211;-73
2022/04/13 02:18:52;;;;;;;10.13;3.20;;;;;;;10.49;71.95;96280.06;2082256;28;20197;-73
2022/04/13 02:19:54;;;;;;;7.53;3.30;;;;;;;10.68;71.63;96297.91;2083425;28;20661;-73
2022/04/13 02:20:55;;;;;;;4.53;3.40;;;;;;;10.62;71.65;96289.63;2084773;28;20228;-73
2022/04/13 02:21:57;;;;;;;6.55;3.47;;;;;;;10.56;71.81;96287.47;2085498;28;20699;-73
2022/04/13 02:22:58;;;;;;;7.18;3.45;;;;;;;10.60;71.81;96297.59;2086209;28;20199;-73
2022/04/13 02:24:01;;;;;;;6.35;2.92;;;;;;;10.66;71.51;96301.56;2081464;28;20238;-73
2022/04/13 02:25:04;;;;;;;4.90;2.72;;;;;;;10.53;71.75;96287.72;2082580;28;20770;-74
2022/04/13 02:26:06;;;;;;;5.50;3.22;;;;;;;10.54;71.85;96287.59;2075753;28;20201;-73
2022/04/13 02:27:09;;;;;;;6.43;2.92;;;;;;;10.56;71.83;96295.34;2078614;28;20217;-73
2022/04/13 02:28:11;;;;;;;8.10;3.30;;;;;;;10.56;71.74;96300.56;2083021;28;20203;-73
2022/04/13 02:29:12;;;;;;;7.18;3.40;;;;;;;10.58;71.86;96299.50;2083200;28;20200;-73
2022/04/13 02:30:15;;;;;;;8.75;2.90;;;;;;;10.52;71.80;96286.03;2084629;28;20199;-73
2022/04/13 02:31:17;;;;;;;10.05;3.50;;;;;;;10.44;71.69;96276.13;2079054;28;20204;-73
2022/04/13 02:32:19;;;;;;;4.95;3.33;;;;;;;10.52;71.90;96293.88;2079212;28;20212;-73
2022/04/13 02:33:21;;;;;;;8.00;3.10;;;;;;;10.49;71.89;96295.78;2084059;28;20197;-73
2022/04/13 02:34:22;;;;;;;8.15;3.25;;;;;;;10.46;71.98;96290.75;2084902;28;20205;-73
2022/04/13 02:35:24;;;;;;;3.15;2.25;;;;;;;10.40;71.93;96280.75;2084113;28;20382;-73
2022/04/13 02:36:26;;;;;;;11.32;3.10;;;;;;;10.47;71.55;96281.97;2084200;28;20737;-73
2022/04/13 02:37:28;;;;;;;4.75;2.70;;;;;;;10.44;71.47;96276.94;2085837;28;20203;-73
2022/04/13 02:38:29;;;;;;;6.25;2.35;;;;;;;10.68;71.42;96295.28;2084559;28;20200;-73
2022/04/13 02:39:31;;;;;;;4.53;2.53;;;;;;;10.54;71.19;96279.72;2084675;28;20246;-73
2022/04/13 02:40:32;;;;;;;5.35;2.95;;;;;;;10.61;70.89;96282.75;2085567;28;20218;-73
2022/04/13 02:41:34;;;;;;;10.32;3.05;;;;;;;10.68;71.16;96299.66;2083092;28;20193;-73
2022/04/13 02:42:36;;;;;;;7.10;2.63;;;;;;;10.42;72.07;96297.16;2084736;28;20675;-73
2022/04/13 02:43:39;;;;;;;5.53;2.53;;;;;;;10.36;72.50;96305.47;2084682;28;20201;-73
2022/04/13 02:44:42;;;;;;;4.40;2.75;;;;;;;10.36;72.50;96302.03;2084029;28;20197;-73
2022/04/13 02:45:44;;;;;;;5.90;3.05;;;;;;;10.30;72.51;96290.22;2082485;28;20228;-73
2022/04/13 02:46:45;;;;;;;3.85;2.60;;;;;;;10.37;72.43;96287.97;2084745;28;20208;-73
2022/04/13 02:47:47;;;;;;;12.23;3.50;;;;;;;10.39;72.03;96286.94;2084182;28;20208;-73
2022/04/13 02:48:49;;;;;;;7.85;3.03;;;;;;;10.39;72.76;96300.03;2077301;28;20228;-73
2022/04/13 02:49:51;;;;;;;11.45;3.30;;;;;;;10.28;72.48;96276.38;2079095;28;20200;-73
2022/04/13 02:50:52;;;;;;;9.10;2.63;;;;;;;10.39;72.30;96294.78;2083838;28;20416;-73
2022/04/13 02:51:54;;;;;;;5.63;2.42;;;;;;;10.46;72.37;96297.78;2085184;28;20198;-73
2022/04/13 02:52:56;;;;;;;6.15;3.08;;;;;;;10.52;72.07;96299.97;2079120;28;20355;-73
2022/04/13 02:53:58;;;;;;;4.30;2.20;;;;;;;10.45;72.13;96285.66;2079433;28;20660;-72
2022/04/13 02:55:00;;;;;;;3.42;2.28;;;;;;;10.36;72.33;96274.06;2084559;28;20708;-73
2022/04/13 02:56:01;;;;;;;7.72;2.40;;;;;;;10.53;71.96;96288.56;2086736;28;20628;-73
2022/04/13 02:57:03;;;;;;;3.75;1.88;;;;;;;10.57;71.81;96303.09;2083106;28;20554;-73
2022/04/13 02:58:05;;;;;;;10.98;2.35;;;;;;;10.47;72.09;96284.59;2084963;28;20558;-73
2022/04/13 02:59:06;;;;;;;11.93;2.47;;;;;;;10.49;72.13;96285.31;2085654;28;20205;-73
2022/04/13 03:00:08;;;;;;;5.18;2.03;;;;;;;10.47;72.08;96281.16;2078189;28;20197;-73
2022/04/13 03:01:10;;;;;;;6.70;2.15;;;;;;;10.43;72.37;96288.38;2072949;28;20213;-73
2022/04/13 03:02:15;;;;;;;5.43;2.40;;;;;;;10.41;72.47;96289.47;2080276;28;20331;-73
2022/04/13 03:03:17;;;;;;;7.47;2.35;;;;;;;10.32;72.69;96283.09;2082589;28;20644;-73
2022/04/13 03:04:19;;;;;;;2.55;1.75;;;;;;;10.38;72.61;96289.66;2084470;28;20236;-73
2022/04/13 03:05:20;;;;;;;4.60;2.30;;;;;;;10.20;73.13;96274.31;2085779;28;20228;-73
2022/04/13 03:06:22;;;;;;;5.85;2.00;;;;;;;10.39;72.54;96280.84;2085607;28;20544;-73
2022/04/13 03:07:25;;;;;;;3.17;2.25;;;;;;;10.45;71.73;96278.63;2082187;28;20647;-73
2022/04/13 03:08:27;;;;;;;8.45;2.35;;;;;;;10.57;71.98;96291.78;2082684;28;20199;-73
2022/04/13 03:09:29;;;;;;;7.95;2.40;;;;;;;10.51;71.97;96279.16;2082699;28;20211;-73
2022/04/13 03:10:30;;;;;;;5.78;2.20;;;;;;;10.49;71.98;96281.88;2081644;28;20213;-73
2022/04/13 03:11:32;;;;;;;3.15;2.33;;;;;;;10.52;71.91;96289.47;2078253;28;20882;-73
2022/04/13 03:12:34;;;;;;;10.35;2.08;;;;;;;10.53;72.21;96291.16;2080310;28;20198;-73
2022/04/13 03:13:42;;;;;;;5.20;2.00;;;;;;;10.46;72.36;96293.38;2085756;28;20556;-73
2022/04/13 03:14:44;;;;;;;5.32;2.35;;;;;;;10.34;72.18;96272.50;2087261;28;20188;-73
2022/04/13 03:15:45;;;;;;;7.82;2.42;;;;;;;10.48;72.24;96286.25;2079352;28;20223;-73
2022/04/13 03:16:47;;;;;;;4.53;2.70;;;;;;;10.46;71.83;96280.28;2079420;28;20205;-73
2022/04/13 03:17:50;;;;;;;5.63;2.20;;;;;;;10.51;71.66;96287.81;2086130;28;20204;-73
2022/04/13 03:18:52;;;;;;;3.85;2.17;;;;;;;10.51;71.93;96282.59;2079428;28;20346;-73
2022/04/13 03:19:54;;;;;;;11.80;3.08;;;;;;;10.43;72.54;96277.91;2074229;28;20572;-73
2022/04/13 03:20:55;;;;;;;5.65;2.05;;;;;;;10.51;72.47;96292.25;2077018;28;20221;-73
2022/04/13 03:21:57;;;;;;;5.32;2.35;;;;;;;10.52;72.49;96294.72;2076362;28;20211;-73
2022/04/13 03:22:58;;;;;;;5.50;2.10;;;;;;;10.46;72.42;96293.38;2086012;28;20536;-73
2022/04/13 03:24:00;;;;;;;4.28;2.25;;;;;;;10.43;72.83;96301.47;2076607;28;20280;-73
2022/04/13 03:25:03;;;;;;;9.30;3.40;;;;;;;10.37;72.85;96304.53;2077335;28;20262;-73
2022/04/13 03:26:04;;;;;;;4.85;2.42;;;;;;;10.27;72.96;96288.63;2085887;28;20197;-73
2022/04/13 03:27:06;;;;;;;6.63;2.00;;;;;;;10.26;73.11;96292.19;2084735;28;20200;-72
2022/04/13 03:28:07;;;;;;;10.07;2.47;;;;;;;10.21;73.10;96281.22;2085562;28;20646;-72
2022/04/13 03:29:09;;;;;;;3.47;2.03;;;;;;;10.16;73.33;96277.28;2083771;28;20401;-72
2022/04/13 03:30:16;;;;;;;3.05;1.95;;;;;;;10.25;72.81;96285.31;2082816;28;20203;-73
2022/04/13 03:31:17;;;;;;;3.92;2.20;;;;;;;10.32;72.90;96297.97;2086928;28;20208;-73
2022/04/13 03:32:19;;;;;;;4.40;2.05;;;;;;;10.17;72.81;96276.31;2076594;28;20197;-73
2022/04/13 03:33:21;;;;;;;9.82;2.35;;;;;;;10.20;73.23;96297.88;2076897;28;20210;-73
2022/04/13 03:34:22;;;;;;;3.30;1.83;;;;;;;10.12;73.75;96297.59;2085800;28;20199;-72
2022/04/13 03:35:24;;;;;;;6.63;2.25;;;;;;;9.94;74.11;96281.44;2085455;28;20266;-73
2022/04/13 03:36:25;;;;;;;5.05;2.88;;;;;;;9.86;74.39;96274.13;2077595;28;20204;-73
2022/04/13 03:37:27;;;;;;;6.13;2.40;;;;;;;9.97;74.42;96296.06;2080435;28;20212;-73
2022/04/13 03:38:29;;;;;;;5.20;2.30;;;;;;;10.00;74.17;96285.41;2085917;28;20858;-73
2022/04/13 03:39:30;;;;;;;4.20;2.33;;;;;;;9.83;75.07;96286.56;2084117;28;20508;-73
2022/04/13 03:40:32;;;;;;;5.72;2.40;;;;;;;9.57;75.49;96280.56;2084088;28;20230;-73
2022/04/13 03:41:37;;;;;;;4.55;2.67;;;;;;;9.42;76.07;96283.28;2084598;28;20204;-73
2022/04/13 03:42:39;;;;;;;7.22;2.30;;;;;;;9.44;76.50;96302.31;2086658;28;20212;-73
2022/04/13 03:43:41;;;;;;;6.53;2.40;;;;;;;9.47;76.56;96296.06;2086239;28;20198;-73
2022/04/13 03:44:42;;;;;;;3.97;2.40;;;;;;;9.43;76.35;96287.59;2085154;28;20202;-73
2022/04/13 03:45:44;;;;;;;8.55;2.75;;;;;;;9.53;76.01;96293.03;2079756;28;20229;-73
2022/04/13 03:46:46;;;;;;;4.40;2.95;;;;;;;9.42;76.27;96288.50;2079165;28;20618;-73
2022/04/13 03:47:48;;;;;;;6.85;3.28;;;;;;;9.39;76.28;96295.72;2085889;28;20696;-73
2022/04/13 03:48:50;;;;;;;12.10;3.00;;;;;;;9.37;76.67;96300.22;2087092;28;20202;-73
2022/04/13 03:49:51;;;;;;;5.70;2.78;;;;;;;9.24;76.73;96287.19;2085917;28;20194;-73
2022/04/13 03:50:55;;;;;;;4.95;2.80;;;;;;;9.13;76.91;96285.28;2079147;28;20221;-73
2022/04/13 03:51:57;;;;;;;5.85;3.47;;;;;;;9.17;77.10;96299.81;2080568;28;20230;-73
2022/04/13 03:52:58;;;;;;;4.20;2.83;;;;;;;9.26;76.95;96298.38;2083264;28;20190;-72
2022/04/13 03:54:00;;;;;;;5.93;2.70;;;;;;;9.21;77.22;96296.06;2084779;28;20204;-73
2022/04/13 03:55:05;;;;;;;4.72;3.38;;;;;;;9.18;77.57;96301.50;2084120;28;20196;-73
2022/04/13 03:56:06;;;;;;;9.77;2.85;;;;;;;9.13;77.21;96293.13;2086024;28;20201;-73
2022/04/13 03:57:08;;;;;;;8.48;2.70;;;;;;;8.88;77.88;96271.28;2085151;28;20198;-73
2022/04/13 03:58:09;;;;;;;5.18;2.80;;;;;;;8.94;78.15;96282.25;2084513;28;20526;-72
2022/04/13 03:59:11;;;;;;;6.50;2.92;;;;;;;9.04;78.28;96304.22;2085399;28;20209;-73
2022/04/13 04:00:12;;;;;;;10.40;2.92;;;;;;;8.96;78.20;96296.03;2083079;28;20200;-73
2022/04/13 04:01:14;;;;;;;4.43;2.85;;;;;;;9.04;78.35;96299.00;2084262;28;20208;-73
2022/04/13 04:02:16;;;;;;;6.65;3.75;;;;;;;8.94;78.20;96292.69;2085226;28;20601;-73
2022/04/13 04:03:17;;;;;;;5.55;3.35;;;;;;;9.06;78.15;96303.16;2084308;28;20200;-72
2022/04/13 04:04:19;;;;;;;6.03;3.13;;;;;;;9.21;77.86;96310.88;2084486;28;20584;-72
2022/04/13 04:05:21;;;;;;;11.73;3.20;;;;;;;9.05;78.00;96298.84;2083931;28;20581;-72
2022/04/13 04:06:23;;;;;;;4.18;2.53;;;;;;;9.07;77.91;96293.53;2086055;28;20193;-72
2022/04/13 04:07:25;;;;;;;8.52;3.60;;;;;;;9.11;78.08;96308.06;2085948;28;20200;-73
2022/04/13 04:08:27;;;;;;;5.85;2.88;;;;;;;8.99;77.84;96286.22;2085453;28;20193;-72
2022/04/13 04:09:29;;;;;;;6.07;2.67;;;;;;;9.15;77.63;96300.84;2088379;28;20203;-72
2022/04/13 04:10:31;;;;;;;7.82;2.85;;;;;;;9.16;77.65;96313.81;2087579;28;20239;-73
2022/04/13 04:11:35;;;;;;;3.50;2.50;;;;;;;9.16;77.92;96307.78;2088475;28;20208;-72
2022/04/13 04:12:40;;;;;;;7.03;2.58;;;;;;;9.24;77.87;96315.91;2087540;28;20200;-73
2022/04/13 04:13:42;;;;;;;6.45;3.10;;;;;;;9.20;77.90;96315.28;2084502;28;20204;-72
2022/04/13 04:14:44;;;;;;;9.43;3.00;;;;;;;9.06;78.23;96300.53;2083339;28;20206;-72
2022/04/13 04:15:45;;;;;;;3.35;2.80;;;;;;;9.17;78.11;96315.47;2084328;28;20259;-73
2022/04/13 04:16:47;;;;;;;3.95;2.80;;;;;;;8.84;78.57;96292.47;2084687;28;20578;-73
2022/04/13 04:17:49;;;;;;;10.32;3.05;;;;;;;8.97;78.74;96314.22;2085049;28;20196;-73
2022/04/13 04:18:50;;;;;;;6.82;2.60;;;;;;;8.98;78.36;96305.47;2085305;28;20200;-72
2022/04/13 04:19:51;;;;;;;4.32;3.15;;;;;;;8.96;78.46;96317.78;2084825;28;20312;-72
2022/04/13 04:20:53;;;;;;;7.75;3.75;;;;;;;8.95;78.66;96305.66;2075511;28;20834;-67
2022/04/13 04:21:55;;;;;;;3.58;2.80;;;;;;;9.02;78.12;96316.53;2074984;28;20559;-67
2022/04/13 04:22:57;;;;;;;6.28;3.08;;;;;;;9.01;78.09;96314.84;2084707;28;20199;-67
2022/04/13 04:23:59;;;;;;;5.93;3.15;;;;;;;9.01;78.50;96320.91;2084658;28;20280;-67
2022/04/13 04:25:02;;;;;;;4.97;2.67;;;;;;;8.96;78.49;96312.56;2083474;28;20201;-68
2022/04/13 04:26:04;;;;;;;11.05;3.15;;;;;;;8.82;78.16;96295.19;2085163;28;20220;-67
2022/04/13 04:27:05;;;;;;;4.43;2.20;;;;;;;8.93;78.65;96311.91;2082407;28;20205;-67
2022/04/13 04:28:10;;;;;;;5.38;2.70;;;;;;;8.83;78.63;96311.69;2087356;28;20211;-67
2022/04/13 04:29:12;;;;;;;14.15;3.35;;;;;;;8.76;79.34;96316.50;2087199;28;20216;-67
2022/04/13 04:30:13;;;;;;;5.88;3.25;;;;;;;8.88;78.88;96309.63;2084990;28;20181;-67
2022/04/13 04:31:49;;;;;;;4.53;2.90;;;;;;;8.84;78.74;96314.22;2084747;28;20197;-67
2022/04/13 04:32:39;;;;;;;6.57;3.05;;;;;;;8.81;78.93;96308.34;2081688;28;20200;-67
2022/04/13 04:33:41;;;;;;;12.55;3.50;;;;;;;8.69;79.69;96310.00;2086940;28;20209;-67
2022/04/13 04:34:42;;;;;;;5.53;3.53;;;;;;;8.66;79.59;96311.03;2087579;28;20203;-67
2022/04/13 04:35:47;;;;;;;6.07;3.28;;;;;;;8.73;79.31;96316.69;2086490;28;20722;-67
2022/04/13 04:36:49;;;;;;;8.98;3.20;;;;;;;8.57;79.47;96300.38;2085337;28;20196;-67
2022/04/13 04:37:50;;;;;;;4.65;2.97;;;;;;;8.63;79.73;96318.22;2077781;28;20274;-67
2022/04/13 04:38:52;;;;;;;8.02;3.55;;;;;;;8.61;79.82;96320.09;2068219;28;20195;-67
2022/04/13 04:39:53;;;;;;;8.77;3.40;;;;;;;8.56;79.43;96315.16;2077352;28;20193;-67
2022/04/13 04:40:54;;;;;;;9.30;4.20;;;;;;;8.57;79.84;96306.41;2085193;28;20240;-67
2022/04/13 04:41:56;;;;;;;6.63;2.75;;;;;;;8.57;79.80;96310.81;2083080;28;20193;-67
2022/04/13 04:43:00;;;;;;;7.40;3.50;;;;;;;8.65;79.43;96311.13;2084364;28;20197;-67
2022/04/13 04:44:03;;;;;;;5.13;2.72;;;;;;;8.67;79.47;96317.09;2085245;28;20241;-67
2022/04/13 04:45:05;;;;;;;5.05;3.38;;;;;;;8.67;79.54;96317.94;2086539;28;20636;-67
2022/04/13 04:46:07;;;;;;;5.93;3.63;;;;;;;8.68;79.76;96318.75;2085179;28;20208;-67
2022/04/13 04:47:09;;;;;;;6.13;3.53;;;;;;;8.70;79.48;96315.13;2087178;28;20226;-67
2022/04/13 04:48:10;;;;;;;11.38;3.72;;;;;;;8.62;79.91;96319.97;2085464;28;20196;-67
2022/04/13 04:49:12;;;;;;;6.32;3.53;;;;;;;8.46;80.62;96316.72;2075342;28;20582;-68
2022/04/13 04:50:16;;;;;;;10.63;3.95;;;;;;;8.35;80.69;96304.34;2074487;28;20289;-67
2022/04/13 04:51:17;;;;;;;7.82;4.00;;;;;;;8.49;81.03;96319.97;2084346;28;20201;-67
2022/04/13 04:52:19;;;;;;;7.45;3.70;;;;;;;8.52;80.61;96309.31;2085325;28;20203;-67
2022/04/13 04:53:20;;;;;;;6.45;3.75;;;;;;;8.54;80.78;96324.03;2085296;28;20204;-67